createdAt,value
2022-12-14T00:02:04.557Z,99778.64
2022-12-14T00:04:33.637Z,99781.33
2022-12-14T00:07:04.163Z,99783.20
2022-12-14T00:09:34.018Z,99781.96
2022-12-14T00:12:03.014Z,99779.95
2022-12-14T00:14:32.349Z,99777.91
2022-12-14T00:17:02.718Z,99778.32
2022-12-14T00:19:32.486Z,99781.04
2022-12-14T00:22:02.895Z,99779.29
2022-12-14T00:24:32.397Z,99783.35
2022-12-14T00:27:01.404Z,99781.34
2022-12-14T00:29:30.342Z,99781.63
2022-12-14T00:31:59.340Z,99781.57
2022-12-14T00:34:29.878Z,99783.14
2022-12-14T00:37:00.021Z,99782.55
2022-12-14T00:39:30.281Z,99782.76
2022-12-14T00:42:02.459Z,99785.30
2022-12-14T00:44:31.852Z,99783.61
2022-12-14T00:47:02.302Z,99787.42
2022-12-14T00:49:31.495Z,99782.63
2022-12-14T00:52:01.716Z,99779.61
2022-12-14T00:54:32.125Z,99774.58
2022-12-14T00:57:02.061Z,99773.73
2022-12-14T00:59:33.103Z,99775.09
2022-12-14T01:02:03.456Z,99780.97
2022-12-14T01:04:32.562Z,99781.94
2022-12-14T01:07:04.283Z,99781.51
2022-12-14T01:09:36.279Z,99780.27
2022-12-14T01:12:06.238Z,99781.04
2022-12-14T01:14:36.695Z,99780.29
2022-12-14T01:17:07.461Z,99782.88
2022-12-14T01:19:38.587Z,99785.02
2022-12-14T01:22:10.920Z,99779.89
2022-12-14T01:24:40.709Z,99776.62
2022-12-14T01:27:09.771Z,99771.09
2022-12-14T01:29:39.016Z,99768.19
2022-12-14T01:32:09.674Z,99769.48
2022-12-14T01:34:39.536Z,99767.80
2022-12-14T01:37:09.616Z,99766.98
2022-12-14T01:39:38.629Z,99767.15
2022-12-14T01:42:13.862Z,99768.36
2022-12-14T01:44:43.041Z,99771.08
2022-12-14T01:47:29.351Z,99772.31
2022-12-14T01:50:02.711Z,99774.97
2022-12-14T01:52:47.786Z,99772.35
2022-12-14T01:55:28.334Z,99770.86
2022-12-14T01:58:02.820Z,99772.17
2022-12-14T02:00:33.441Z,99770.67
2022-12-14T02:03:16.777Z,99770.83
2022-12-14T02:05:52.039Z,99773.64
2022-12-14T02:08:24.427Z,99768.84
2022-12-14T02:10:58.994Z,99768.70
2022-12-14T02:13:41.043Z,99770.73
2022-12-14T02:16:11.985Z,99770.25
2022-12-14T02:18:42.433Z,99770.79
2022-12-14T02:21:23.391Z,99765.91
2022-12-14T02:24:34.970Z,99762.52
2022-12-14T02:27:25.406Z,99765.67
2022-12-14T02:30:04.944Z,99767.91
2022-12-14T02:32:59.015Z,99767.33
2022-12-14T02:35:32.375Z,99768.64
2022-12-14T02:38:08.554Z,99772.95
2022-12-14T02:40:47.996Z,99772.93
2022-12-14T02:43:33.601Z,99771.23
2022-12-14T02:46:24.327Z,99763.99
2022-12-14T02:49:49.393Z,99765.39
2022-12-14T02:52:40.012Z,99766.60
2022-12-14T02:55:25.056Z,99762.91
2022-12-14T02:58:24.785Z,99760.44
2022-12-14T03:00:56.264Z,99760.02
2022-12-14T03:03:26.078Z,99759.95
2022-12-14T03:06:15.057Z,99756.23
2022-12-14T03:08:47.961Z,99754.73
2022-12-14T03:11:24.221Z,99753.22
2022-12-14T03:14:06.061Z,99748.59
2022-12-14T03:16:43.503Z,99746.09
2022-12-14T03:19:30.945Z,99745.10
2022-12-14T03:22:05.359Z,99744.23
2022-12-14T03:24:43.656Z,99743.85
2022-12-14T03:27:23.347Z,99742.63
2022-12-14T03:29:59.693Z,99744.02
2022-12-14T03:32:31.683Z,99742.43
2022-12-14T03:35:08.874Z,99742.67
2022-12-14T03:38:13.965Z,99738.48
2022-12-14T03:40:53.300Z,99741.25
2022-12-14T03:43:38.699Z,99740.10
2022-12-14T03:46:23.183Z,99744.07
2022-12-14T03:48:57.222Z,99748.41
2022-12-14T03:51:51.841Z,99750.48
2022-12-14T03:54:46.342Z,99751.55
2022-12-14T03:57:46.858Z,99745.63
2022-12-14T04:00:22.983Z,99747.64
2022-12-14T04:03:13.417Z,99744.11
2022-12-14T04:05:53.160Z,99743.86
2022-12-14T04:08:28.027Z,99742.70
2022-12-14T04:11:19.600Z,99744.92
2022-12-14T04:14:17.432Z,99744.66
2022-12-14T04:17:09.867Z,99744.88
2022-12-14T04:19:49.343Z,99751.04
2022-12-14T04:22:25.571Z,99751.92
2022-12-14T04:25:34.342Z,99753.79
2022-12-14T04:28:34.872Z,99754.02
2022-12-14T04:31:10.984Z,99751.02
2022-12-14T04:33:47.777Z,99747.20
2022-12-14T04:36:30.868Z,99746.59
2022-12-14T04:39:08.199Z,99746.98
2022-12-14T04:41:50.200Z,99748.59
2022-12-14T04:44:36.200Z,99746.02
2022-12-14T04:47:16.319Z,99744.27
2022-12-14T04:49:54.325Z,99747.45
2022-12-14T04:52:49.602Z,99744.81
2022-12-14T04:55:21.778Z,99738.91
2022-12-14T04:58:14.093Z,99739.95
2022-12-14T05:01:09.833Z,99735.50
2022-12-14T05:04:14.302Z,99739.25
2022-12-14T05:07:04.138Z,99742.19
2022-12-14T05:09:59.835Z,99732.46
2022-12-14T05:12:48.857Z,99729.48
2022-12-14T05:15:23.983Z,99727.59
2022-12-14T05:17:54.954Z,99728.56
2022-12-14T05:20:27.801Z,99726.92
2022-12-14T05:22:57.023Z,99726.05
2022-12-14T05:25:26.745Z,99720.42
2022-12-14T05:27:55.980Z,99726.36
2022-12-14T05:30:25.379Z,99726.95
2022-12-14T05:32:54.679Z,99725.77
2022-12-14T05:35:25.635Z,99721.95
2022-12-14T05:37:57.469Z,99726.42
2022-12-14T05:40:27.130Z,99728.83
2022-12-14T05:43:12.670Z,99726.77
2022-12-14T05:45:43.344Z,99725.60
2022-12-14T05:48:13.382Z,99724.55
2022-12-14T05:50:44.010Z,99722.61
2022-12-14T05:53:13.267Z,99724.82
2022-12-14T05:55:49.137Z,99723.59
2022-12-14T05:58:19.002Z,99728.48
2022-12-14T06:00:49.368Z,99724.95
2022-12-14T06:03:18.514Z,99726.23
2022-12-14T06:05:47.883Z,99724.89
2022-12-14T06:08:17.496Z,99726.20
2022-12-14T06:10:49.863Z,99724.73
2022-12-14T06:13:21.246Z,99727.79
2022-12-14T06:15:50.583Z,99730.48
2022-12-14T06:18:22.141Z,99731.38
2022-12-14T06:20:51.205Z,99733.13
2022-12-14T06:23:24.002Z,99738.90
2022-12-14T06:25:55.989Z,99740.95
2022-12-14T06:28:26.557Z,99735.71
2022-12-14T06:30:55.780Z,99740.14
2022-12-14T06:33:25.984Z,99739.33
2022-12-14T06:35:57.285Z,99746.95
2022-12-14T06:38:27.479Z,99741.77
2022-12-14T06:40:56.703Z,99746.25
2022-12-14T06:43:28.115Z,99747.91
2022-12-14T06:45:57.845Z,99749.80
2022-12-14T06:48:53.175Z,99753.88
2022-12-14T06:51:24.030Z,99755.74
2022-12-14T06:53:55.272Z,99752.25
2022-12-14T06:56:29.223Z,99753.61
2022-12-14T06:58:58.912Z,99755.30
2022-12-14T07:01:29.585Z,99756.41
2022-12-14T07:04:00.454Z,99762.36
2022-12-14T07:06:33.825Z,99759.20
2022-12-14T07:09:04.503Z,99757.59
2022-12-14T07:11:34.746Z,99761.67
2022-12-14T07:14:06.695Z,99766.17
2022-12-14T07:16:37.564Z,99767.89
2022-12-14T07:19:06.773Z,99766.25
2022-12-14T07:21:35.974Z,99772.21
2022-12-14T07:24:06.578Z,99777.80
2022-12-14T07:26:37.748Z,99770.46
2022-12-14T07:29:07.108Z,99772.40
2022-12-14T07:31:36.754Z,99775.77
2022-12-14T07:34:06.064Z,99776.46
2022-12-14T07:36:35.261Z,99783.34
2022-12-14T07:39:05.424Z,99786.29
2022-12-14T07:41:35.920Z,99786.69
2022-12-14T07:44:05.873Z,99782.13
2022-12-14T07:46:35.846Z,99781.16
2022-12-14T07:49:06.902Z,99780.70
2022-12-14T07:51:38.968Z,99777.96
2022-12-14T07:54:09.239Z,99771.41
2022-12-14T07:56:43.453Z,99773.16
2022-12-14T07:59:16.741Z,99774.16
2022-12-14T08:01:46.607Z,99780.10
2022-12-14T08:04:20.320Z,99783.18
2022-12-14T08:06:50.785Z,99783.27
2022-12-14T08:09:20.538Z,99784.89
2022-12-14T08:11:50.903Z,99779.91
2022-12-14T08:14:20.198Z,99784.38
2022-12-14T08:16:50.556Z,99782.73
2022-12-14T08:19:21.476Z,99778.70
2022-12-14T08:21:50.574Z,99778.63
2022-12-14T08:24:21.257Z,99776.31
2022-12-14T08:26:53.306Z,99772.17
2022-12-14T08:29:22.823Z,99770.91
2022-12-14T08:31:58.554Z,99769.84
2022-12-14T08:34:29.081Z,99771.92
2022-12-14T08:36:58.417Z,99772.05
2022-12-14T08:39:27.684Z,99763.20
2022-12-14T08:41:56.753Z,99766.82
2022-12-14T08:44:26.253Z,99764.77
2022-12-14T08:46:56.161Z,99768.33
2022-12-14T08:49:32.059Z,99765.52
2022-12-14T08:52:01.892Z,99768.49
2022-12-14T08:54:31.944Z,99761.45
2022-12-14T08:57:02.123Z,99761.39
2022-12-14T09:00:00.107Z,99753.72
2022-12-14T09:02:21.622Z,99753.34
2022-12-14T09:04:51.309Z,99748.13
2022-12-14T09:07:21.377Z,99746.60
2022-12-14T09:09:51.221Z,99742.76
2022-12-14T09:12:21.263Z,99740.83
2022-12-14T09:14:52.008Z,99738.20
2022-12-14T09:17:21.608Z,99738.16
2022-12-14T09:19:52.500Z,99736.98
2022-12-14T09:22:25.226Z,99737.47
2022-12-14T09:24:55.103Z,99733.13
2022-12-14T09:27:26.225Z,99730.96
2022-12-14T09:29:55.383Z,99730.36
2022-12-14T09:32:25.718Z,99727.02
2022-12-14T09:34:54.844Z,99724.18
2022-12-14T09:37:24.350Z,99726.40
2022-12-14T09:39:55.317Z,99721.67
2022-12-14T09:43:03.599Z,99719.91
2022-12-14T09:45:37.576Z,99719.42
2022-12-14T09:48:19.046Z,99719.64
2022-12-14T09:50:51.546Z,99715.30
2022-12-14T09:53:23.914Z,99715.59
2022-12-14T09:55:56.307Z,99711.21
2022-12-14T09:58:31.310Z,99706.45
2022-12-14T10:01:25.385Z,99710.31
2022-12-14T10:04:14.089Z,99704.47
2022-12-14T10:07:19.362Z,99699.14
2022-12-14T10:10:04.100Z,99695.10
2022-12-14T10:12:56.775Z,99695.51
2022-12-14T10:15:42.632Z,99690.08
2022-12-14T10:18:41.391Z,99685.22
2022-12-14T10:21:13.297Z,99681.27
2022-12-14T10:23:52.761Z,99673.41
2022-12-14T10:26:27.769Z,99666.73
2022-12-14T10:29:03.148Z,99659.82
2022-12-14T10:32:12.655Z,99656.41
2022-12-14T10:34:44.341Z,99649.95
2022-12-14T10:37:48.472Z,99638.52
2022-12-14T10:40:34.178Z,99633.14
2022-12-14T10:43:41.346Z,99627.16
2022-12-14T10:46:35.434Z,99624.29
2022-12-14T10:49:42.302Z,99620.07
2022-12-14T10:52:18.220Z,99606.23
2022-12-14T10:55:03.694Z,99596.52
2022-12-14T10:57:35.974Z,99594.23
2022-12-14T11:00:22.903Z,99590.79
2022-12-14T11:02:58.012Z,99585.48
2022-12-14T11:05:48.398Z,99589.80
2022-12-14T11:08:40.904Z,99588.33
2022-12-14T11:11:19.163Z,99585.27
2022-12-14T11:13:55.107Z,99586.99
2022-12-14T11:16:40.150Z,99583.94
2022-12-14T11:19:21.546Z,99587.02
2022-12-14T11:22:12.872Z,99581.20
2022-12-14T11:24:47.290Z,99578.49
2022-12-14T11:27:21.720Z,99576.23
2022-12-14T11:29:52.434Z,99574.10
2022-12-14T11:32:26.460Z,99569.76
2022-12-14T11:34:59.473Z,99568.14
2022-12-14T11:37:33.281Z,99564.13
2022-12-14T11:40:07.119Z,99563.03
2022-12-14T11:42:37.751Z,99561.94
2022-12-14T11:45:32.810Z,99562.27
2022-12-14T11:48:15.497Z,99561.35
2022-12-14T11:50:51.831Z,99559.38
2022-12-14T11:53:23.405Z,99554.88
2022-12-14T11:56:01.035Z,99556.30
2022-12-14T11:58:54.825Z,99556.98
2022-12-14T12:01:27.261Z,99553.40
2022-12-14T12:03:59.868Z,99552.45
2022-12-14T12:06:30.769Z,99548.17
2022-12-14T12:09:04.861Z,99550.39
2022-12-14T12:11:36.329Z,99546.71
2022-12-14T12:14:31.101Z,99546.01
2022-12-14T12:17:02.023Z,99542.52
2022-12-14T12:19:38.415Z,99539.83
2022-12-14T12:22:12.925Z,99536.55
2022-12-14T12:25:25.782Z,99527.61
2022-12-14T12:28:05.073Z,99522.48
2022-12-14T12:30:39.233Z,99523.15
2022-12-14T12:33:39.449Z,99520.31
2022-12-14T12:36:10.725Z,99525.36
2022-12-14T12:38:49.974Z,99521.80
2022-12-14T12:41:28.045Z,99521.66
2022-12-14T12:44:20.540Z,99522.85
2022-12-14T12:47:25.156Z,99523.06
2022-12-14T12:50:13.784Z,99520.77
2022-12-14T12:53:12.625Z,99516.06
2022-12-14T12:55:58.755Z,99515.18
2022-12-14T12:58:33.355Z,99507.35
2022-12-14T13:01:28.258Z,99508.91
2022-12-14T13:04:03.643Z,99505.89
2022-12-14T13:07:07.574Z,99506.41
2022-12-14T13:09:49.105Z,99503.64
2022-12-14T13:12:47.877Z,99509.29
2022-12-14T13:15:41.088Z,99509.42
2022-12-14T13:18:59.185Z,99510.90
2022-12-14T13:21:35.556Z,99502.95
2022-12-14T13:24:07.645Z,99501.44
2022-12-14T13:26:59.140Z,99500.19
2022-12-14T13:29:53.902Z,99499.60
2022-12-14T13:32:57.038Z,99497.89
2022-12-14T13:35:34.777Z,99490.34
2022-12-14T13:38:32.947Z,99484.41
2022-12-14T13:41:31.249Z,99483.00
2022-12-14T13:44:09.897Z,99487.19
2022-12-14T13:46:40.374Z,99485.30
2022-12-14T13:49:23.624Z,99487.98
2022-12-14T13:51:54.564Z,99484.03
2022-12-14T13:54:34.181Z,99478.81
2022-12-14T13:57:12.169Z,99473.82
2022-12-14T13:59:49.373Z,99472.17
2022-12-14T14:02:39.909Z,99467.48
2022-12-14T14:05:19.274Z,99468.67
2022-12-14T14:07:57.654Z,99468.09
2022-12-14T14:10:43.076Z,99468.30
2022-12-14T14:13:27.780Z,99464.19
2022-12-14T14:16:27.962Z,99462.05
2022-12-14T14:19:20.233Z,99460.10
2022-12-14T14:22:25.995Z,99458.17
2022-12-14T14:24:56.670Z,99456.70
2022-12-14T14:27:39.444Z,99454.13
2022-12-14T14:30:37.563Z,99450.56
2022-12-14T14:33:45.360Z,99452.60
2022-12-14T14:36:33.584Z,99450.11
2022-12-14T14:39:38.280Z,99449.89
2022-12-14T14:42:02.474Z,99447.48
2022-12-14T14:44:43.142Z,99446.08
2022-12-14T14:47:39.235Z,99442.06
2022-12-14T14:50:14.482Z,99438.22
2022-12-14T14:52:45.224Z,99438.45
2022-12-14T14:58:22.505Z,99435.82
2022-12-14T15:01:06.807Z,99431.59
2022-12-14T15:04:06.949Z,99433.11
2022-12-14T15:06:42.556Z,99431.84
2022-12-14T15:09:26.405Z,99430.77
2022-12-14T15:12:00.655Z,99429.85
2022-12-14T15:14:48.238Z,99428.09
2022-12-14T15:17:17.805Z,99426.55
2022-12-14T15:20:41.117Z,99422.61
2022-12-14T15:23:16.056Z,99421.95
2022-12-14T15:26:01.700Z,99417.02
2022-12-14T15:28:32.696Z,99422.82
2022-12-14T15:31:02.261Z,99416.42
2022-12-14T15:33:46.375Z,99416.20
2022-12-14T15:36:20.174Z,99407.92
2022-12-14T15:38:55.900Z,99407.77
2022-12-14T15:41:28.827Z,99408.56
2022-12-14T15:44:00.327Z,99407.19
2022-12-14T15:46:33.703Z,99402.05
2022-12-14T15:49:08.633Z,99396.73
2022-12-14T15:51:44.657Z,99390.39
2022-12-14T15:54:24.729Z,99388.65
2022-12-14T15:56:59.348Z,99387.04
2022-12-14T15:59:35.584Z,99376.52
2022-12-14T16:02:35.269Z,99376.61
2022-12-14T16:05:07.057Z,99375.70
2022-12-14T16:07:43.313Z,99375.83
2022-12-14T16:10:33.553Z,99371.23
2022-12-14T16:13:30.627Z,99369.06
2022-12-14T16:16:07.765Z,99365.00
2022-12-14T16:18:51.033Z,99361.27
2022-12-14T16:21:30.525Z,99360.84
2022-12-14T16:24:22.758Z,99356.91
2022-12-14T16:27:02.151Z,99349.64
2022-12-14T16:29:34.833Z,99346.08
2022-12-14T16:32:17.026Z,99343.75
2022-12-14T16:34:58.930Z,99342.13
2022-12-14T16:37:33.492Z,99337.39
2022-12-14T16:40:05.594Z,99336.94
2022-12-14T16:42:36.450Z,99337.11
2022-12-14T16:45:32.142Z,99332.75
2022-12-14T16:48:08.050Z,99332.44
2022-12-14T16:50:56.218Z,99328.16
2022-12-14T16:53:33.339Z,99320.51
2022-12-14T16:56:16.050Z,99325.38
2022-12-14T16:59:24.109Z,99319.91
2022-12-14T17:01:54.462Z,99320.64
2022-12-14T17:04:38.088Z,99317.42
2022-12-14T17:07:07.548Z,99314.73
2022-12-14T17:09:39.155Z,99317.77
2022-12-14T17:12:16.135Z,99315.71
2022-12-14T17:14:50.291Z,99307.88
2022-12-14T17:17:27.917Z,99306.16
2022-12-14T17:19:59.129Z,99303.84
2022-12-14T17:22:32.540Z,99298.58
2022-12-14T17:25:04.278Z,99294.84
2022-12-14T17:27:37.741Z,99295.46
2022-12-14T17:30:09.058Z,99297.61
2022-12-14T17:32:39.963Z,99297.43
2022-12-14T17:35:22.047Z,99299.64
2022-12-14T17:37:54.635Z,99288.00
2022-12-14T17:40:28.187Z,99281.23
2022-12-14T17:43:00.275Z,99279.27
2022-12-14T17:45:32.106Z,99272.92
2022-12-14T17:48:03.882Z,99266.77
2022-12-14T17:50:37.100Z,99259.57
2022-12-14T17:53:08.840Z,99255.52
2022-12-14T17:55:39.797Z,99254.89
2022-12-14T17:58:12.047Z,99252.04
2022-12-14T18:01:00.560Z,99248.26
2022-12-14T18:03:34.619Z,99247.71
2022-12-14T18:06:08.188Z,99251.42
2022-12-14T18:08:40.618Z,99246.88
2022-12-14T18:11:17.384Z,99247.34
2022-12-14T18:13:51.513Z,99245.70
2022-12-14T18:16:28.839Z,99235.26
2022-12-14T18:19:01.431Z,99231.72
2022-12-14T18:21:31.715Z,99232.13
2022-12-14T18:24:26.303Z,99235.45
2022-12-14T18:26:57.347Z,99235.67
2022-12-14T18:29:29.324Z,99227.47
2022-12-14T18:32:02.763Z,99221.77
2022-12-14T18:34:43.254Z,99216.73
2022-12-14T18:37:17.429Z,99209.30
2022-12-14T18:39:50.985Z,99206.36
2022-12-14T18:42:22.866Z,99202.94
2022-12-14T18:44:55.092Z,99202.55
2022-12-14T18:47:43.954Z,99198.95
2022-12-14T18:50:17.536Z,99197.27
2022-12-14T18:52:50.227Z,99197.69
2022-12-14T18:55:29.509Z,99188.33
2022-12-14T18:58:03.066Z,99196.73
2022-12-14T19:00:38.800Z,99196.45
2022-12-14T19:03:13.312Z,99190.87
2022-12-14T19:05:45.759Z,99196.52
2022-12-14T19:08:18.841Z,99192.55
2022-12-14T19:10:50.362Z,99191.75
2022-12-14T19:13:25.951Z,99192.45
2022-12-14T19:16:02.552Z,99191.84
2022-12-14T19:18:37.031Z,99197.73
2022-12-14T19:21:11.546Z,99198.08
2022-12-14T19:23:42.750Z,99191.77
2022-12-14T19:26:15.189Z,99194.59
2022-12-14T19:28:50.671Z,99192.84
2022-12-14T19:31:22.180Z,99196.42
2022-12-14T19:33:56.534Z,99194.57
2022-12-14T19:36:36.759Z,99197.04
2022-12-14T19:39:09.802Z,99194.20
2022-12-14T19:41:57.288Z,99191.63
2022-12-14T19:44:35.256Z,99204.19
2022-12-14T19:47:09.844Z,99204.31
2022-12-14T19:49:42.714Z,99205.52
2022-12-14T19:52:17.450Z,99203.60
2022-12-14T19:54:49.689Z,99204.75
2022-12-14T19:57:21.801Z,99204.38
2022-12-14T19:59:55.223Z,99203.45
2022-12-14T20:02:31.463Z,99200.42
2022-12-14T20:05:05.571Z,99200.27
2022-12-14T20:07:43.501Z,99195.55
2022-12-14T20:10:16.495Z,99193.08
2022-12-14T20:12:48.929Z,99191.23
2022-12-14T20:15:22.099Z,99190.05
2022-12-14T20:17:55.473Z,99192.25
2022-12-14T20:20:30.824Z,99189.81
2022-12-14T20:23:02.929Z,99191.73
2022-12-14T20:25:36.312Z,99186.63
2022-12-14T20:28:07.612Z,99184.77
2022-12-14T20:30:53.110Z,99181.65
2022-12-14T20:33:29.859Z,99181.12
2022-12-14T20:36:05.194Z,99176.59
2022-12-14T20:38:37.620Z,99177.42
2022-12-14T20:41:13.812Z,99178.56
2022-12-14T20:43:47.027Z,99182.41
2022-12-14T20:46:39.883Z,99179.30
2022-12-14T20:49:35.877Z,99183.98
2022-12-14T20:52:33.537Z,99182.30
2022-12-14T20:55:08.012Z,99180.71
2022-12-14T20:57:48.509Z,99177.87
2022-12-14T21:00:18.736Z,99180.70
2022-12-14T21:02:50.143Z,99178.57
2022-12-14T21:05:21.199Z,99174.34
2022-12-14T21:07:54.098Z,99174.73
2022-12-14T21:10:24.790Z,99177.02
2022-12-14T21:12:54.819Z,99176.30
2022-12-14T21:15:27.500Z,99171.17
2022-12-14T21:17:56.930Z,99164.38
2022-12-14T21:20:28.389Z,99162.31
2022-12-14T21:22:57.958Z,99160.65
2022-12-14T21:25:28.683Z,99158.50
2022-12-14T21:28:00.183Z,99154.23
2022-12-14T21:31:15.499Z,99147.46
2022-12-14T21:34:00.259Z,99141.71
2022-12-14T21:36:34.460Z,99139.75
2022-12-14T21:39:13.374Z,99140.48
2022-12-14T21:42:02.631Z,99141.60
2022-12-14T21:44:35.268Z,99143.00
2022-12-14T21:47:07.320Z,99142.52
2022-12-14T21:49:38.324Z,99139.35
2022-12-14T21:52:08.742Z,99134.98
2022-12-14T21:54:39.810Z,99125.31
2022-12-14T21:57:35.623Z,99122.09
2022-12-14T22:00:07.716Z,99120.18
2022-12-14T22:02:43.003Z,99112.34
2022-12-14T22:05:12.463Z,99116.92
2022-12-14T22:07:42.305Z,99118.11
2022-12-14T22:10:11.633Z,99118.08
2022-12-14T22:12:42.582Z,99125.39
2022-12-14T22:15:11.735Z,99117.41
2022-12-14T22:17:40.775Z,99113.92
2022-12-14T22:20:12.369Z,99114.66
2022-12-14T22:22:41.523Z,99112.40
2022-12-14T22:25:10.578Z,99108.56
2022-12-14T22:27:39.700Z,99105.10
2022-12-14T22:30:12.540Z,99105.11
2022-12-14T22:32:42.739Z,99106.12
2022-12-14T22:35:13.679Z,99101.39
2022-12-14T22:37:42.682Z,99089.98
2022-12-14T22:40:13.195Z,99087.66
2022-12-14T22:42:42.196Z,99085.16
2022-12-14T22:45:13.023Z,99077.60
2022-12-14T22:47:46.125Z,99076.71
2022-12-14T22:50:16.482Z,99074.23
2022-12-14T22:52:49.633Z,99069.78
2022-12-14T22:55:19.082Z,99072.98
2022-12-14T22:57:48.756Z,99068.67
2022-12-14T23:00:23.003Z,99066.69
2022-12-14T23:02:54.436Z,99065.09
2022-12-14T23:05:24.556Z,99062.35
2022-12-14T23:07:53.871Z,99052.89
2022-12-14T23:10:42.141Z,99050.71
2022-12-14T23:13:32.287Z,99048.73
2022-12-14T23:16:22.495Z,99053.30
2022-12-14T23:19:11.368Z,99054.37
2022-12-14T23:22:01.630Z,99050.84
2022-12-14T23:24:50.498Z,99048.83
2022-12-14T23:27:38.802Z,99046.52
2022-12-14T23:30:28.288Z,99041.61
2022-12-14T23:33:18.005Z,99040.95
2022-12-14T23:36:07.485Z,99039.96
2022-12-14T23:38:56.755Z,99034.65
2022-12-14T23:41:44.328Z,99032.45
2022-12-14T23:44:32.057Z,99031.64
2022-12-14T23:47:19.678Z,99034.35
2022-12-14T23:50:07.993Z,99035.61
2022-12-14T23:52:56.092Z,99035.33
2022-12-14T23:55:44.926Z,99034.01
2022-12-14T23:58:32.765Z,99033.46
